createdAt,value
2019-05-21T00:02:07.282Z,70.80
2019-05-21T00:04:38.857Z,80.70
2019-05-21T00:07:10.448Z,69.70
2019-05-21T00:09:42.019Z,75.40
2019-05-21T00:12:13.586Z,72.97
2019-05-21T00:14:45.157Z,76.03
2019-05-21T00:17:16.775Z,78.10
2019-05-21T00:19:48.296Z,80.23
2019-05-21T00:22:19.876Z,77.50
2019-05-21T00:24:52.773Z,73.57
2019-05-21T00:27:24.418Z,80.07
2019-05-21T00:30:51.204Z,75.80
2019-05-21T00:34:17.814Z,77.37
2019-05-21T00:37:43.326Z,70.73
2019-05-21T00:41:09.099Z,72.10
2019-05-21T00:43:59.458Z,72.00
2019-05-21T00:46:31.055Z,70.57
2019-05-21T00:49:02.661Z,65.10
2019-05-21T00:51:34.236Z,69.37
2019-05-21T00:54:05.819Z,68.97
2019-05-21T00:56:37.427Z,69.30
2019-05-21T00:59:08.997Z,65.77
2019-05-21T01:01:40.615Z,73.90
2019-05-21T01:04:12.267Z,64.27
2019-05-21T01:06:44.223Z,62.53
2019-05-21T01:09:15.791Z,63.43
2019-05-21T01:11:47.401Z,67.60
2019-05-21T01:14:18.959Z,65.27
2019-05-21T01:16:50.554Z,65.93
2019-05-21T01:19:22.115Z,68.20
2019-05-21T01:21:53.700Z,68.80
2019-05-21T01:24:25.283Z,59.23
2019-05-21T01:26:56.876Z,56.50
2019-05-21T01:29:28.466Z,60.77
2019-05-21T01:32:01.122Z,66.60
2019-05-21T01:34:33.096Z,57.80
2019-05-21T01:37:04.936Z,55.13
2019-05-21T01:39:37.596Z,57.77
2019-05-21T01:42:09.153Z,58.93
2019-05-21T01:44:40.741Z,56.70
2019-05-21T01:47:12.310Z,63.27
2019-05-21T01:49:43.908Z,50.20
2019-05-21T01:52:16.672Z,49.50
2019-05-21T01:54:48.270Z,53.03
2019-05-21T01:57:19.847Z,48.23
2019-05-21T01:59:51.419Z,45.90
2019-05-21T02:02:23.018Z,47.97
2019-05-21T02:04:54.572Z,50.50
2019-05-21T02:07:26.148Z,50.80
2019-05-21T02:10:00.935Z,50.77
2019-05-21T02:12:32.509Z,50.77
2019-05-21T02:15:04.100Z,52.93
2019-05-21T02:17:35.667Z,53.80
2019-05-21T02:20:07.718Z,48.10
2019-05-21T02:22:39.298Z,47.40
2019-05-21T02:25:11.017Z,49.60
2019-05-21T02:27:42.614Z,45.27
2019-05-21T02:30:14.574Z,46.90
2019-05-21T02:32:46.155Z,41.93
2019-05-21T02:35:17.726Z,41.90
2019-05-21T02:37:49.303Z,41.80
2019-05-21T02:40:21.524Z,47.03
2019-05-21T02:42:53.172Z,43.97
2019-05-21T02:45:24.739Z,45.93
2019-05-21T02:47:57.367Z,42.10
2019-05-21T02:50:28.962Z,46.23
2019-05-21T02:53:00.532Z,45.40
2019-05-21T02:55:32.180Z,44.50
2019-05-21T02:58:03.740Z,45.03
2019-05-21T03:01:03.291Z,47.10
2019-05-21T03:03:36.441Z,46.83
2019-05-21T03:06:13.602Z,45.80
2019-05-21T03:08:41.293Z,44.53
2019-05-21T03:11:12.862Z,45.70
2019-05-21T03:13:44.425Z,42.47
2019-05-21T03:16:16.032Z,50.60
2019-05-21T03:18:47.587Z,47.13
2019-05-21T03:21:19.162Z,49.47
2019-05-21T03:23:50.748Z,48.77
2019-05-21T03:26:22.326Z,51.60
2019-05-21T03:28:53.884Z,48.70
2019-05-21T03:31:25.502Z,50.40
2019-05-21T03:33:57.049Z,47.03
2019-05-21T03:36:33.384Z,48.07
2019-05-21T03:39:02.146Z,49.03
2019-05-21T03:41:33.732Z,49.27
2019-05-21T03:44:05.362Z,52.10
2019-05-21T03:46:36.917Z,50.17
2019-05-21T03:49:08.498Z,52.10
2019-05-21T03:51:40.076Z,53.50
2019-05-21T03:54:11.668Z,49.20
2019-05-21T03:56:43.235Z,47.30
2019-05-21T03:59:14.875Z,48.80
2019-05-21T04:01:46.455Z,48.90
2019-05-21T04:04:18.021Z,47.60
2019-05-21T04:06:52.276Z,47.70
2019-05-21T04:09:22.886Z,48.00
2019-05-21T04:11:54.442Z,43.50
2019-05-21T04:14:50.874Z,48.40
2019-05-21T04:17:34.360Z,44.63
2019-05-21T04:20:03.465Z,47.20
2019-05-21T04:22:36.683Z,45.00
2019-05-21T04:25:08.264Z,45.67
2019-05-21T04:27:39.908Z,39.13
2019-05-21T04:30:13.064Z,46.73
2019-05-21T04:32:44.610Z,44.60
2019-05-21T04:35:16.338Z,45.67
2019-05-21T04:37:47.903Z,40.13
2019-05-21T04:40:19.497Z,41.20
2019-05-21T04:42:51.052Z,45.90
2019-05-21T04:45:22.663Z,43.20
2019-05-21T04:47:54.233Z,43.00
2019-05-21T04:50:26.881Z,43.93
2019-05-21T04:52:58.436Z,43.53
2019-05-21T04:55:30.066Z,42.13
2019-05-21T04:58:01.638Z,44.73
2019-05-21T05:00:33.228Z,44.83
2019-05-21T05:03:04.826Z,43.60
2019-05-21T05:05:36.429Z,39.40
2019-05-21T05:08:07.980Z,39.77
2019-05-21T05:10:39.585Z,35.53
2019-05-21T05:13:11.169Z,38.30
2019-05-21T05:15:42.923Z,38.10
2019-05-21T05:18:14.503Z,38.83
2019-05-21T05:20:46.098Z,39.10
2019-05-21T05:23:17.733Z,35.00
2019-05-21T05:25:49.257Z,41.90
2019-05-21T05:28:20.849Z,35.47
2019-05-21T05:30:52.414Z,32.57
2019-05-21T05:33:24.005Z,32.40
2019-05-21T05:35:55.593Z,36.47
2019-05-21T05:38:27.177Z,33.70
2019-05-21T05:40:58.782Z,29.63
2019-05-21T05:43:30.375Z,29.43
2019-05-21T05:46:01.941Z,30.63
2019-05-21T05:48:35.207Z,30.80
2019-05-21T05:51:07.749Z,27.40
2019-05-21T05:53:57.256Z,27.10
2019-05-21T05:56:30.033Z,26.10
2019-05-21T05:59:01.607Z,25.80
2019-05-21T06:01:34.467Z,29.30
2019-05-21T06:04:06.180Z,26.27
2019-05-21T06:06:37.778Z,21.23
2019-05-21T06:09:09.355Z,26.60
2019-05-21T06:11:40.945Z,23.57
2019-05-21T06:14:12.554Z,21.03
2019-05-21T06:16:44.147Z,22.87
2019-05-21T06:19:15.720Z,20.80
2019-05-21T06:21:47.295Z,20.23
2019-05-21T06:24:18.866Z,20.33
2019-05-21T06:26:50.426Z,19.47
2019-05-21T06:29:22.013Z,20.20
2019-05-21T06:31:53.601Z,16.83
2019-05-21T06:34:25.200Z,19.73
2019-05-21T06:36:57.852Z,16.47
2019-05-21T06:39:29.439Z,15.90
2019-05-21T06:42:01.039Z,16.67
2019-05-21T06:44:32.722Z,17.63
2019-05-21T06:47:04.273Z,14.00
2019-05-21T06:49:35.980Z,14.93
2019-05-21T06:52:07.551Z,13.13
2019-05-21T06:54:39.148Z,13.00
2019-05-21T06:57:10.760Z,14.20
2019-05-21T06:59:42.340Z,11.60
2019-05-21T07:02:14.013Z,10.27
2019-05-21T07:04:45.590Z,10.13
2019-05-21T07:07:17.199Z,11.27
2019-05-21T07:09:48.743Z,12.07
2019-05-21T07:12:20.341Z,10.20
2019-05-21T07:14:51.901Z,10.10
2019-05-21T07:17:23.505Z,11.90
2019-05-21T07:19:55.162Z,9.37
2019-05-21T07:22:26.735Z,8.43
2019-05-21T07:24:58.302Z,7.60
2019-05-21T07:27:29.935Z,7.73
2019-05-21T07:30:01.500Z,7.57
2019-05-21T07:32:33.161Z,7.80
2019-05-21T07:35:05.185Z,6.37
2019-05-21T07:37:37.739Z,6.77
2019-05-21T07:40:09.693Z,5.73
2019-05-21T07:42:42.770Z,5.00
2019-05-21T07:45:14.482Z,5.73
2019-05-21T07:47:46.071Z,5.70
2019-05-21T07:50:17.771Z,8.20
2019-05-21T07:52:49.358Z,5.50
2019-05-21T07:55:20.950Z,5.97
2019-05-21T07:57:52.564Z,5.40
2019-05-21T08:00:25.275Z,6.50
2019-05-21T08:02:56.888Z,5.93
2019-05-21T08:05:28.434Z,4.93
2019-05-21T08:07:59.998Z,5.07
2019-05-21T08:10:31.578Z,5.40
2019-05-21T08:13:03.227Z,4.90
2019-05-21T08:15:34.816Z,4.83
2019-05-21T08:18:06.408Z,7.23
2019-05-21T08:20:37.965Z,6.90
2019-05-21T08:23:09.552Z,5.77
2019-05-21T08:25:41.104Z,5.03
2019-05-21T08:28:12.711Z,19.20
2019-05-21T08:30:44.307Z,5.13
2019-05-21T08:33:15.873Z,5.00
2019-05-21T08:35:47.762Z,8.80
2019-05-21T08:38:19.388Z,6.10
2019-05-21T08:40:50.968Z,7.53
2019-05-21T08:43:22.535Z,5.77
2019-05-21T08:45:54.102Z,5.37
2019-05-21T08:48:25.666Z,5.73
2019-05-21T08:50:57.262Z,7.63
2019-05-21T08:53:29.886Z,4.90
2019-05-21T08:56:01.501Z,5.97
2019-05-21T08:58:33.096Z,6.40
2019-05-21T09:01:04.715Z,8.13
2019-05-21T09:03:36.274Z,7.40
2019-05-21T09:06:07.853Z,7.03
2019-05-21T09:08:39.401Z,6.80
2019-05-21T09:11:11.024Z,7.23
2019-05-21T09:13:42.614Z,7.50
2019-05-21T09:16:14.225Z,7.20
2019-05-21T09:18:45.798Z,5.70
2019-05-21T09:21:18.470Z,5.83
2019-05-21T09:23:50.035Z,9.63
2019-05-21T09:26:21.670Z,7.30
2019-05-21T09:28:53.261Z,8.27
2019-05-21T09:31:24.857Z,6.77
2019-05-21T09:33:56.447Z,6.37
2019-05-21T09:36:28.279Z,4.97
2019-05-21T09:38:59.956Z,5.70
2019-05-21T09:41:31.530Z,6.03
2019-05-21T09:44:04.353Z,5.40
2019-05-21T09:46:35.906Z,6.47
2019-05-21T09:49:07.480Z,6.23
2019-05-21T09:51:39.057Z,5.03
2019-05-21T09:54:10.674Z,6.27
2019-05-21T09:56:42.240Z,4.90
2019-05-21T09:59:37.113Z,4.60
2019-05-21T10:02:12.949Z,4.23
2019-05-21T10:04:44.552Z,4.40
2019-05-21T10:07:16.122Z,4.53
2019-05-21T10:09:47.868Z,5.20
2019-05-21T10:12:19.562Z,5.83
2019-05-21T10:14:51.141Z,4.67
2019-05-21T10:17:22.734Z,4.70
2019-05-21T10:19:54.368Z,4.47
2019-05-21T10:22:25.957Z,4.37
2019-05-21T10:24:57.612Z,4.40
2019-05-21T10:27:29.216Z,3.50
2019-05-21T10:30:01.857Z,4.30
2019-05-21T10:32:33.490Z,4.43
2019-05-21T10:35:05.566Z,4.20
2019-05-21T10:37:37.531Z,3.97
2019-05-21T10:40:09.335Z,5.33
2019-05-21T10:42:41.250Z,5.30
2019-05-21T10:45:13.060Z,5.30
2019-05-21T10:47:44.646Z,4.20
2019-05-21T10:50:16.436Z,4.90
2019-05-21T10:52:48.001Z,4.73
2019-05-21T10:55:19.565Z,4.90
2019-05-21T10:57:51.167Z,5.73
2019-05-21T11:00:23.903Z,5.00
2019-05-21T11:03:03.825Z,4.80
2019-05-21T11:05:44.520Z,5.80
2019-05-21T11:08:24.943Z,7.13
2019-05-21T11:10:49.720Z,5.67
2019-05-21T11:13:21.524Z,6.40
2019-05-21T11:15:53.168Z,5.30
2019-05-21T11:18:24.755Z,5.20
2019-05-21T11:20:56.318Z,5.10
2019-05-21T11:23:27.914Z,5.20
2019-05-21T11:25:59.513Z,5.10
2019-05-21T11:28:31.144Z,6.30
2019-05-21T11:31:02.746Z,5.00
2019-05-21T11:33:34.349Z,4.40
2019-05-21T11:36:05.944Z,5.60
2019-05-21T11:38:40.117Z,6.23
2019-05-21T11:41:10.801Z,4.40
2019-05-21T11:43:42.532Z,4.33
2019-05-21T11:46:14.077Z,4.30
2019-05-21T11:48:45.734Z,3.20
2019-05-21T11:51:18.407Z,4.00
2019-05-21T11:53:49.990Z,3.10
2019-05-21T11:56:21.554Z,3.30
2019-05-21T11:58:53.168Z,3.27
2019-05-21T12:01:24.771Z,3.17
2019-05-21T12:03:56.445Z,3.50
2019-05-21T12:06:28.044Z,3.07
2019-05-21T12:08:59.678Z,3.20
2019-05-21T12:11:31.274Z,3.53
2019-05-21T12:14:02.849Z,2.93
2019-05-21T12:16:34.448Z,3.83
2019-05-21T12:19:08.203Z,3.00
2019-05-21T12:21:39.362Z,2.97
2019-05-21T12:24:10.955Z,2.90
2019-05-21T12:26:42.538Z,4.00
2019-05-21T12:29:14.096Z,2.90
2019-05-21T12:31:45.703Z,3.40
2019-05-21T12:34:17.286Z,2.97
2019-05-21T12:36:48.902Z,3.00
2019-05-21T12:39:20.472Z,3.20
2019-05-21T12:41:52.077Z,3.00
2019-05-21T12:44:23.657Z,3.13
2019-05-21T12:46:55.268Z,2.97
2019-05-21T12:49:26.880Z,3.37
2019-05-21T12:51:58.409Z,3.13
2019-05-21T12:54:30.033Z,2.67
2019-05-21T12:57:01.649Z,3.63
2019-05-21T12:59:33.224Z,3.53
2019-05-21T13:02:04.833Z,3.90
2019-05-21T13:04:36.416Z,3.77
2019-05-21T13:07:08.029Z,3.07
2019-05-21T13:09:39.635Z,3.40
2019-05-21T13:12:11.229Z,3.60
2019-05-21T13:14:42.842Z,3.80
2019-05-21T13:17:14.430Z,3.63
2019-05-21T13:19:45.979Z,3.93
2019-05-21T13:22:17.571Z,3.50
2019-05-21T13:24:49.294Z,3.10
2019-05-21T13:27:20.878Z,4.20
2019-05-21T13:29:52.469Z,4.30
2019-05-21T13:32:24.030Z,3.63
2019-05-21T13:34:55.655Z,4.10
2019-05-21T13:37:27.232Z,3.60
2019-05-21T13:39:58.889Z,2.90
2019-05-21T13:42:30.465Z,2.70
2019-05-21T13:45:02.100Z,3.03
2019-05-21T13:47:34.746Z,3.10
2019-05-21T13:50:07.342Z,2.80
2019-05-21T13:52:39.057Z,3.00
2019-05-21T13:55:10.946Z,3.30
2019-05-21T13:57:42.641Z,3.90
2019-05-21T14:00:18.898Z,4.50
2019-05-21T14:02:50.868Z,3.97
2019-05-21T14:05:23.326Z,2.87
2019-05-21T14:07:54.929Z,4.00
2019-05-21T14:10:26.763Z,3.20
2019-05-21T14:12:58.379Z,3.50
2019-05-21T14:15:30.011Z,4.13
2019-05-21T14:18:01.659Z,5.03
2019-05-21T14:20:33.264Z,4.40
2019-05-21T14:23:05.252Z,4.37
2019-05-21T14:25:36.828Z,5.53
2019-05-21T14:28:08.434Z,4.00
2019-05-21T14:30:40.058Z,4.63
2019-05-21T14:33:11.659Z,4.57
2019-05-21T14:35:43.232Z,5.93
2019-05-21T14:38:14.857Z,5.67
2019-05-21T14:40:46.512Z,4.43
2019-05-21T14:43:18.153Z,4.60
2019-05-21T14:45:49.770Z,5.23
2019-05-21T14:48:21.357Z,6.10
2019-05-21T14:50:52.979Z,3.80
2019-05-21T14:53:24.583Z,6.17
2019-05-21T14:55:56.589Z,6.93
2019-05-21T14:58:28.229Z,6.27
2019-05-21T15:00:59.821Z,6.97
2019-05-21T15:03:31.413Z,5.67
2019-05-21T15:06:03.054Z,4.53
2019-05-21T15:08:34.680Z,4.20
2019-05-21T15:11:06.352Z,4.30
2019-05-21T15:13:38.008Z,4.23
2019-05-21T15:16:09.651Z,4.43
2019-05-21T15:18:41.269Z,5.20
2019-05-21T15:21:21.154Z,3.73
2019-05-21T15:23:52.825Z,4.47
2019-05-21T15:26:24.522Z,3.77
2019-05-21T15:28:57.232Z,4.40
2019-05-21T15:31:28.824Z,3.77
2019-05-21T15:34:00.425Z,5.27
2019-05-21T15:36:32.027Z,5.80
2019-05-21T15:39:04.862Z,4.90
2019-05-21T15:41:36.595Z,4.70
2019-05-21T15:44:08.227Z,4.80
2019-05-21T15:46:48.778Z,4.87
2019-05-21T15:49:13.293Z,4.97
2019-05-21T15:51:44.899Z,4.77
2019-05-21T15:54:16.530Z,4.30
2019-05-21T15:56:48.215Z,5.07
2019-05-21T15:59:19.796Z,4.80
2019-05-21T16:01:51.407Z,4.50
2019-05-21T16:04:22.985Z,4.80
2019-05-21T16:06:54.625Z,5.50
2019-05-21T16:09:26.528Z,5.60
2019-05-21T16:11:58.171Z,5.33
2019-05-21T16:14:30.828Z,5.30
2019-05-21T16:17:02.532Z,5.87
2019-05-21T16:19:34.130Z,6.00
2019-05-21T16:22:05.764Z,6.80
2019-05-21T16:24:37.363Z,6.80
2019-05-21T16:27:09.023Z,9.20
2019-05-21T16:29:40.611Z,7.30
2019-05-21T16:32:13.358Z,6.00
2019-05-21T16:34:44.919Z,7.10
2019-05-21T16:37:16.943Z,6.73
2019-05-21T16:39:48.601Z,7.63
2019-05-21T16:42:20.229Z,9.43
2019-05-21T16:44:51.844Z,9.27
2019-05-21T16:47:23.566Z,10.23
2019-05-21T16:49:55.132Z,8.40
2019-05-21T16:52:26.759Z,10.77
2019-05-21T16:54:58.378Z,9.30
2019-05-21T16:57:30.155Z,8.97
2019-05-21T17:00:01.725Z,9.17
2019-05-21T17:02:34.995Z,8.80
2019-05-21T17:05:06.787Z,9.60
2019-05-21T17:07:38.375Z,10.10
2019-05-21T17:10:11.823Z,9.60
2019-05-21T17:12:43.401Z,9.23
2019-05-21T17:15:15.488Z,8.37
2019-05-21T17:17:47.158Z,9.33
2019-05-21T17:20:18.915Z,9.10
2019-05-21T17:22:50.531Z,8.97
2019-05-21T17:25:23.271Z,11.17
2019-05-21T17:27:54.893Z,11.73
2019-05-21T17:30:26.528Z,9.13
2019-05-21T17:32:58.181Z,9.77
2019-05-21T17:35:29.880Z,10.00
2019-05-21T17:38:01.566Z,10.80
2019-05-21T17:40:33.242Z,10.90
2019-05-21T17:43:04.880Z,11.30
2019-05-21T17:45:36.526Z,11.10
2019-05-21T17:48:08.418Z,12.50
2019-05-21T17:50:41.094Z,10.27
2019-05-21T17:53:12.858Z,13.47
2019-05-21T17:55:44.510Z,13.17
2019-05-21T17:58:17.188Z,12.37
2019-05-21T18:00:52.496Z,11.30
2019-05-21T18:03:25.302Z,11.60
2019-05-21T18:05:56.976Z,11.90
2019-05-21T18:08:30.355Z,11.00
2019-05-21T18:11:02.234Z,13.33
2019-05-21T18:13:33.984Z,12.80
2019-05-21T18:16:08.188Z,11.90
2019-05-21T18:18:39.809Z,14.80
2019-05-21T18:21:11.993Z,14.67
2019-05-21T18:23:43.982Z,11.97
2019-05-21T18:26:15.625Z,22.60
2019-05-21T18:28:47.244Z,13.70
2019-05-21T18:31:18.881Z,13.93
2019-05-21T18:33:50.596Z,12.93
2019-05-21T18:36:22.462Z,15.37
2019-05-21T18:38:54.195Z,13.47
2019-05-21T18:41:25.867Z,17.17
2019-05-21T18:43:57.610Z,14.73
2019-05-21T18:46:29.308Z,13.23
2019-05-21T18:49:00.944Z,12.73
2019-05-21T18:51:32.609Z,14.60
2019-05-21T18:54:04.346Z,17.90
2019-05-21T18:56:36.054Z,14.60
2019-05-21T18:59:08.322Z,15.13
2019-05-21T19:01:40.019Z,12.57
2019-05-21T19:04:11.677Z,13.97
2019-05-21T19:06:43.338Z,14.67
2019-05-21T19:09:15.002Z,14.50
2019-05-21T19:11:46.606Z,13.27
2019-05-21T19:14:18.457Z,13.93
2019-05-21T19:16:50.044Z,15.20
2019-05-21T19:19:21.723Z,15.90
2019-05-21T19:21:53.348Z,15.10
2019-05-21T19:24:24.953Z,15.50
2019-05-21T19:26:56.593Z,15.20
2019-05-21T19:29:28.223Z,21.70
2019-05-21T19:31:59.852Z,15.83
2019-05-21T19:34:31.488Z,14.77
2019-05-21T19:37:03.073Z,16.27
2019-05-21T19:39:34.919Z,15.60
2019-05-21T19:42:06.670Z,17.83
2019-05-21T19:44:38.386Z,16.63
2019-05-21T19:47:10.107Z,18.77
2019-05-21T19:49:41.770Z,16.37
2019-05-21T19:52:15.217Z,16.80
2019-05-21T19:54:46.861Z,15.40
2019-05-21T19:57:19.897Z,15.40
2019-05-21T19:59:52.496Z,15.30
2019-05-21T20:02:24.287Z,15.50
2019-05-21T20:04:56.499Z,17.40
2019-05-21T20:07:28.218Z,16.77
2019-05-21T20:10:00.396Z,17.50
2019-05-21T20:12:32.416Z,17.93
2019-05-21T20:15:04.001Z,18.50
2019-05-21T20:17:36.852Z,17.50
2019-05-21T20:20:09.758Z,17.30
2019-05-21T20:22:42.599Z,19.00
2019-05-21T20:25:15.743Z,19.27
2019-05-21T20:27:47.787Z,19.33
2019-05-21T20:30:23.022Z,21.93
2019-05-21T20:32:55.145Z,21.80
2019-05-21T20:35:30.029Z,20.30
2019-05-21T20:38:01.662Z,20.40
2019-05-21T20:40:33.494Z,21.17
2019-05-21T20:43:06.015Z,20.97
2019-05-21T20:45:39.974Z,23.60
2019-05-21T20:48:13.843Z,23.27
2019-05-21T20:50:46.170Z,24.63
2019-05-21T20:53:18.429Z,26.60
2019-05-21T20:55:50.214Z,24.90
2019-05-21T20:58:22.417Z,21.70
2019-05-21T21:01:00.946Z,23.87
2019-05-21T21:03:34.294Z,26.90
2019-05-21T21:06:06.212Z,27.10
2019-05-21T21:08:38.848Z,23.07
2019-05-21T21:11:11.282Z,25.13
2019-05-21T21:13:44.616Z,27.60
2019-05-21T21:16:16.435Z,25.40
2019-05-21T21:18:48.529Z,26.00
2019-05-21T21:21:20.359Z,26.17
2019-05-21T21:23:52.273Z,29.40
2019-05-21T21:26:24.351Z,28.03
2019-05-21T21:28:55.960Z,29.40
2019-05-21T21:31:27.578Z,29.53
2019-05-21T21:33:59.155Z,30.57
2019-05-21T21:36:31.682Z,27.60
2019-05-21T21:39:05.056Z,34.30
2019-05-21T21:41:38.850Z,30.17
2019-05-21T21:44:10.745Z,31.50
2019-05-21T21:46:42.613Z,29.93
2019-05-21T21:49:15.798Z,28.60
2019-05-21T21:51:47.665Z,29.37
2019-05-21T21:54:20.717Z,32.10
2019-05-21T21:56:52.454Z,31.93
2019-05-21T21:59:24.010Z,29.93
2019-05-21T22:02:03.783Z,32.40
2019-05-21T22:04:37.081Z,30.00
2019-05-21T22:07:08.906Z,34.13
2019-05-21T22:09:40.976Z,30.00
2019-05-21T22:12:16.798Z,30.30
2019-05-21T22:14:57.509Z,33.30
2019-05-21T22:17:29.188Z,34.73
2019-05-21T22:20:01.452Z,32.17
2019-05-21T22:22:34.467Z,34.73
2019-05-21T22:25:06.318Z,33.67
2019-05-21T22:27:38.164Z,32.27
2019-05-21T22:30:10.586Z,37.13
2019-05-21T22:32:42.207Z,31.60
2019-05-21T22:35:13.851Z,33.87
2019-05-21T22:37:45.561Z,35.00
2019-05-21T22:40:17.436Z,34.73
2019-05-21T22:42:49.040Z,37.33
2019-05-21T22:45:20.629Z,51.37
2019-05-21T22:47:52.231Z,35.77
2019-05-21T22:50:24.693Z,35.73
2019-05-21T22:52:56.374Z,37.27
2019-05-21T22:55:55.877Z,37.80
2019-05-21T22:58:27.495Z,37.70
2019-05-21T23:01:01.009Z,37.13
2019-05-21T23:03:33.050Z,37.50
2019-05-21T23:06:04.794Z,36.20
2019-05-21T23:08:36.772Z,36.10
2019-05-21T23:11:52.737Z,40.03
2019-05-21T23:14:24.307Z,38.20
2019-05-21T23:16:56.170Z,39.13
2019-05-21T23:19:32.452Z,39.57
2019-05-21T23:22:14.285Z,38.60
2019-05-21T23:24:48.171Z,36.10
2019-05-21T23:27:20.664Z,40.70
2019-05-21T23:29:52.823Z,39.13
2019-05-21T23:32:24.894Z,39.20
2019-05-21T23:34:57.191Z,41.10
2019-05-21T23:37:28.792Z,43.73
2019-05-21T23:40:00.951Z,43.97
2019-05-21T23:42:33.376Z,39.70
2019-05-21T23:45:05.301Z,39.60
2019-05-21T23:47:36.855Z,39.63
2019-05-21T23:50:10.365Z,39.27
2019-05-21T23:52:42.148Z,41.20
2019-05-21T23:55:14.718Z,39.17
2019-05-21T23:57:46.758Z,39.73
